Terminal Aerodrome Forecast
Issued by NWS

Home | Current Version | Previous Version | Text Only | Print | Product List | Glossary On
Versions: 1 2 3 4 5 6 7 8 9 10 11 12 13 14 15 16
000
FTUS42 KFFC 271122
TAFPDK
TAF
KPDK 271122Z 2712/2812 32010G16KT P6SM BKN012
      TEMPO 2712/2714 -RA BKN008
     FM271500 33013G23KT P6SM BKN025
     FM271700 33013G23KT P6SM SCT025 BKN040
     FM272100 32012G20KT P6SM SCT035
     FM280100 32010KT P6SM BKN050
     FM280400 32005KT P6SM SKC=

USA.gov is the U.S. government's official web portal to all federal, state and local government web resources and services.